Latest  Newer  Older  Last 2 hours slideshow  Last 24 hours slideshow  Refresh every 5 minutes 
Current image  Latest image  Rain/snow radar  Cloud coverage sat images 

All time is UTC (add 2 hours to UTC in wintertime, 3 hours to UTC in DST for Latvia local time)

2020/07/14 00:50 EVRA 140050Z 21003KT 9999 FEW028 09/09 Q1017 NOSIG
2020/07/14 00:50 EVLA 140050Z AUTO VRB01KT 9999 BKN012/// 11/11 Q1017
2020/07/14 00:50 EVVA 140050Z AUTO 19002KT 0450 FG NSC 10/10 Q1016
2020/07/14 00:50 EYKA 140050Z 28002KT CAVOK 10/08 Q1018
2020/07/14 00:50 EYPA 140050Z AUTO 24003KT 200V300 9999 BKN013/// 15/13 Q1018
2020/07/14 00:50 EYSA 140050Z AUTO 26004KT 9999NDV NCD 10/09 Q1018
2020/07/14 00:50 EYVI 140050Z 32004KT 280V340 CAVOK 11/09 Q1018 NOSIG
2020/07/13 14:50 EEKA 131450Z 29008KT 240V330 9999 FEW023 17/11 Q1015
2020/07/14 00:50 EEKE 140050Z AUTO 31003KT 9999NDV FEW003 08/08 Q1016
2020/07/13 12:50 EEPU 131250Z 03005KT 360V090 9999 BKN035 18/16 Q1015
2020/07/14 00:50 EETN 140050Z 25005KT 9999 SCT025 12/10 Q1014
2020/07/14 00:50 EETU 140050Z AUTO 25005KT 9999 NCD 09/08 Q1015
   RIGA AIRPORT     EVRA               56 55N  023 58E   10   X     T          6 LV
   LIEPAJA INTL     EVLA        26406  56 31N  021 06E    4   X                8 LV
   VENTPILS         EVVA               57 21N  021 33E    6   X                8 LV
   KAUNAS           EYKA               54 54N  023 55E   77   X     T          6 LT
   PALANGA INTL     EYPA               55 55N  021 03E   10   X                6 LT
   SIAULIAI INTL    EYSA               55 54N  023 24E  135   X     T          6 LT
   VILNIUS INTL     EYVI        26730  54 38N  025 17E  197   X     T          6 LT
   KARDLA           EEKA        26116  58 59N  022 50E    4   X                8 EE
   KURESSAARE       EEKE               58 14N  022 31E    4   X                8 EE
   PARNU            EEPU               58 25N  024 28E   14   X                8 EE
   TALLINN          EETN        26038  59 24N  024 49E   40   X     T          8 EE
   TARTU            EETU               58 19N  026 41E   67   X                8 EE